createdAt,value
2023-04-26T00:01:38.409Z,90.97
2023-04-26T00:05:51.598Z,92.71
2023-04-26T00:10:08.748Z,90.47
2023-04-26T00:14:22.519Z,92.78
2023-04-26T00:18:34.985Z,93.19
2023-04-26T00:22:47.761Z,92.51
2023-04-26T00:27:00.994Z,91.79
2023-04-26T00:31:17.920Z,91.81
2023-04-26T00:35:31.101Z,89.33
2023-04-26T00:39:43.373Z,91.42
2023-04-26T00:43:56.107Z,92.55
2023-04-26T00:48:08.716Z,92.24
2023-04-26T00:52:22.038Z,89.60
2023-04-26T00:56:35.203Z,89.09
2023-04-26T01:00:47.738Z,89.71
2023-04-26T01:05:00.165Z,89.39
2023-04-26T01:09:16.120Z,86.86
2023-04-26T01:13:30.034Z,87.42
2023-04-26T01:17:44.774Z,90.02
2023-04-26T01:21:58.409Z,87.77
2023-04-26T01:26:11.154Z,84.59
2023-04-26T01:30:23.533Z,83.79
2023-04-26T01:34:36.088Z,85.19
2023-04-26T01:38:48.460Z,83.99
2023-04-26T01:43:03.458Z,82.10
2023-04-26T01:47:17.079Z,84.17
2023-04-26T01:51:30.915Z,85.46
2023-04-26T01:55:44.032Z,82.89
2023-04-26T01:59:58.516Z,83.22
2023-04-26T02:04:12.125Z,81.79
2023-04-26T02:08:24.454Z,84.66
2023-04-26T02:12:36.863Z,82.10
2023-04-26T02:16:49.507Z,80.56
2023-04-26T02:21:01.866Z,81.91
2023-04-26T02:25:17.408Z,79.57
2023-04-26T02:33:48.532Z,84.07
2023-04-26T02:38:00.966Z,84.54
2023-04-26T02:42:13.402Z,85.82
2023-04-26T02:46:27.668Z,86.36
2023-04-26T02:50:40.063Z,87.40
2023-04-26T02:54:52.468Z,87.49
2023-04-26T02:59:04.865Z,88.10
2023-04-26T03:03:17.570Z,89.00
2023-04-26T03:07:31.878Z,89.79
2023-04-26T03:11:44.375Z,89.95
2023-04-26T03:15:57.024Z,90.79
2023-04-26T03:20:11.163Z,89.94
2023-04-26T03:24:24.011Z,88.31
2023-04-26T03:28:36.485Z,88.36
2023-04-26T03:32:49.181Z,89.53
2023-04-26T03:37:03.560Z,90.20
2023-04-26T03:41:17.154Z,91.90
2023-04-26T03:45:29.528Z,91.99
2023-04-26T03:49:42.883Z,92.18
2023-04-26T03:53:56.194Z,93.33
2023-04-26T03:58:09.058Z,92.66
2023-04-26T04:02:22.178Z,93.06
2023-04-26T04:06:38.616Z,93.69
2023-04-26T04:10:51.339Z,93.83
2023-04-26T04:15:03.874Z,93.53
2023-04-26T04:19:17.175Z,93.46
2023-04-26T04:23:29.920Z,93.63
2023-04-26T04:27:43.806Z,93.42
2023-04-26T04:31:56.875Z,94.34
2023-04-26T04:36:10.126Z,93.55
2023-04-26T04:40:23.037Z,93.76
2023-04-26T04:44:35.641Z,92.74
2023-04-26T04:48:48.898Z,93.61
2023-04-26T04:53:01.333Z,92.32
2023-04-26T04:57:14.222Z,90.44
2023-04-26T05:01:27.049Z,91.43
2023-04-26T05:05:42.427Z,91.95
2023-04-26T05:09:54.853Z,91.77
2023-04-26T05:14:07.468Z,91.35
2023-04-26T05:18:19.834Z,90.63
2023-04-26T05:22:32.426Z,88.12
2023-04-26T05:26:44.818Z,88.23
2023-04-26T05:31:18.154Z,87.84
2023-04-26T05:36:00.113Z,87.10
2023-04-26T05:40:13.929Z,86.96
2023-04-26T05:44:26.397Z,86.30
2023-04-26T05:48:40.107Z,84.00
2023-04-26T05:52:52.628Z,81.25
2023-04-26T05:57:06.481Z,81.49
2023-04-26T06:01:19.156Z,81.42
2023-04-26T06:05:32.496Z,78.48
2023-04-26T06:09:44.950Z,78.10
2023-04-26T06:13:57.303Z,77.41
2023-04-26T06:18:11.035Z,75.93
2023-04-26T06:22:23.485Z,72.65
2023-04-26T06:26:36.172Z,71.56
2023-04-26T06:30:49.589Z,72.16
2023-04-26T06:35:02.238Z,75.76
2023-04-26T06:39:14.682Z,75.25
2023-04-26T06:43:28.612Z,73.84
2023-04-26T06:47:48.003Z,70.96
2023-04-26T06:52:00.355Z,67.76
2023-04-26T06:56:12.842Z,68.05
2023-04-26T07:00:25.368Z,70.62
2023-04-26T07:04:38.067Z,69.03
2023-04-26T07:08:51.720Z,61.66
2023-04-26T07:13:04.212Z,65.50
2023-04-26T07:17:16.957Z,62.67
2023-04-26T07:21:31.039Z,61.25
2023-04-26T07:25:43.699Z,58.12
2023-04-26T07:29:58.890Z,56.39
2023-04-26T07:34:11.351Z,63.82
2023-04-26T07:38:24.176Z,62.31
2023-04-26T07:42:36.589Z,65.01
2023-04-26T07:46:49.000Z,65.04
2023-04-26T07:51:09.414Z,62.53
2023-04-26T07:55:22.103Z,59.87
2023-04-26T07:59:34.510Z,59.08
2023-04-26T08:03:47.888Z,61.71
2023-04-26T08:08:01.970Z,62.73
2023-04-26T08:12:14.563Z,59.43
2023-04-26T08:16:27.019Z,58.53
2023-04-26T08:20:39.815Z,57.55
2023-04-26T08:24:55.255Z,57.77
2023-04-26T08:29:07.962Z,58.94
2023-04-26T08:33:20.392Z,55.84
2023-04-26T08:37:33.031Z,54.96
2023-04-26T08:41:50.452Z,55.22
2023-04-26T08:46:04.752Z,53.97
2023-04-26T08:50:20.747Z,53.78
2023-04-26T08:54:33.458Z,53.13
2023-04-26T08:58:46.072Z,52.87
2023-04-26T09:02:58.559Z,50.14
2023-04-26T09:07:19.045Z,51.95
2023-04-26T09:11:31.525Z,49.61
2023-04-26T09:15:43.910Z,49.97
2023-04-26T09:19:57.022Z,50.79
2023-04-26T09:24:09.569Z,50.28
2023-04-26T09:28:23.995Z,50.52
2023-04-26T09:32:56.133Z,49.02
2023-04-26T09:37:14.608Z,46.52
2023-04-26T09:41:43.557Z,45.78
2023-04-26T09:45:58.630Z,43.78
2023-04-26T09:50:11.258Z,43.58
2023-04-26T09:54:42.453Z,43.56
2023-04-26T09:59:00.953Z,46.10
2023-04-26T10:03:14.358Z,46.05
2023-04-26T10:07:27.652Z,48.26
2023-04-26T10:11:40.502Z,45.44
2023-04-26T10:15:54.169Z,44.79
2023-04-26T10:20:11.487Z,46.48
2023-04-26T10:24:24.750Z,46.35
2023-04-26T10:28:46.535Z,46.66
2023-04-26T10:32:58.833Z,44.46
2023-04-26T10:37:16.465Z,42.10
2023-04-26T10:41:32.802Z,41.95
2023-04-26T10:45:46.857Z,43.30
2023-04-26T10:50:10.589Z,39.72
2023-04-26T10:54:24.560Z,39.38
2023-04-26T10:58:41.995Z,39.50
2023-04-26T11:02:58.295Z,38.75
2023-04-26T11:07:14.507Z,37.72
2023-04-26T11:11:33.100Z,38.12
2023-04-26T11:15:46.790Z,37.88
2023-04-26T11:19:59.179Z,35.62
2023-04-26T11:24:11.666Z,34.56
2023-04-26T11:28:24.221Z,36.19
2023-04-26T11:32:37.889Z,36.21
2023-04-26T11:36:51.992Z,35.84
2023-04-26T11:41:04.731Z,34.61
2023-04-26T11:45:17.258Z,35.17
2023-04-26T11:49:30.845Z,35.39
2023-04-26T11:53:43.847Z,35.57
2023-04-26T11:57:57.564Z,35.18
2023-04-26T12:02:13.611Z,34.10
2023-04-26T12:06:42.207Z,32.14
2023-04-26T12:10:54.859Z,30.74
2023-04-26T12:15:15.157Z,31.78
2023-04-26T12:19:28.374Z,30.61
2023-04-26T12:23:42.096Z,34.13
2023-04-26T12:27:55.230Z,32.55
2023-04-26T12:32:07.743Z,31.43
2023-04-26T12:36:20.125Z,33.22
2023-04-26T12:40:32.702Z,32.88
2023-04-26T12:44:45.149Z,32.29
2023-04-26T12:48:57.592Z,30.48
2023-04-26T12:53:11.750Z,28.93
2023-04-26T12:57:24.724Z,28.29
2023-04-26T13:01:37.344Z,29.92
2023-04-26T13:05:49.906Z,28.66
2023-04-26T13:10:02.892Z,29.96
2023-04-26T13:14:15.336Z,30.87
2023-04-26T13:18:27.813Z,31.23
2023-04-26T13:22:42.737Z,30.91
2023-04-26T13:26:55.680Z,29.88
2023-04-26T13:31:08.297Z,31.73
2023-04-26T13:35:21.158Z,31.44
2023-04-26T13:39:33.450Z,32.74
2023-04-26T13:43:45.888Z,31.35
2023-04-26T13:47:58.295Z,31.17
2023-04-26T13:52:12.240Z,32.39
2023-04-26T13:56:26.175Z,32.90
2023-04-26T14:00:38.615Z,32.54
2023-04-26T14:04:51.158Z,33.40
2023-04-26T14:09:05.856Z,33.62
2023-04-26T14:13:18.793Z,34.03
2023-04-26T14:17:32.680Z,35.85
2023-04-26T14:21:45.206Z,37.12
2023-04-26T14:25:57.496Z,37.81
2023-04-26T14:30:10.068Z,37.86
2023-04-26T14:34:23.882Z,38.74
2023-04-26T14:38:36.741Z,38.57
2023-04-26T14:42:49.229Z,38.24
2023-04-26T14:47:01.899Z,38.86
2023-04-26T14:51:14.351Z,39.15
2023-04-26T14:55:27.425Z,39.66
2023-04-26T14:59:39.940Z,41.02
2023-04-26T15:03:52.436Z,41.72
2023-04-26T15:08:05.234Z,42.70
2023-04-26T15:12:17.613Z,42.46
2023-04-26T15:16:30.114Z,43.74
2023-04-26T15:20:42.606Z,45.07
2023-04-26T15:24:54.935Z,45.94
2023-04-26T15:29:07.426Z,44.63
2023-04-26T15:33:20.269Z,43.83
2023-04-26T15:37:32.765Z,44.32
2023-04-26T15:41:45.625Z,43.41
2023-04-26T15:45:58.069Z,43.54
2023-04-26T15:50:10.893Z,44.16
2023-04-26T15:54:24.623Z,45.58
2023-04-26T15:58:39.350Z,47.00
2023-04-26T16:02:53.555Z,47.07
2023-04-26T16:07:08.310Z,48.35
2023-04-26T16:11:22.013Z,48.08
2023-04-26T16:15:34.440Z,47.43
2023-04-26T16:19:47.024Z,47.29
2023-04-26T16:24:00.482Z,45.76
2023-04-26T16:28:12.950Z,46.65
2023-04-26T16:32:26.575Z,48.70
2023-04-26T16:36:38.854Z,50.17
2023-04-26T16:40:58.107Z,50.71
2023-04-26T16:45:16.292Z,52.59
2023-04-26T16:49:29.078Z,52.34
2023-04-26T16:53:41.514Z,52.28
2023-04-26T16:57:53.864Z,48.86
2023-04-26T17:02:07.100Z,47.59
2023-04-26T17:06:20.043Z,46.27
2023-04-26T17:10:34.087Z,46.62
2023-04-26T17:14:46.573Z,44.64
2023-04-26T17:18:58.928Z,42.93
2023-04-26T17:23:12.024Z,43.06
2023-04-26T17:27:25.945Z,43.19
2023-04-26T17:31:39.021Z,43.54
2023-04-26T17:35:51.629Z,44.26
2023-04-26T17:40:08.150Z,44.42
2023-04-26T17:44:20.486Z,43.55
2023-04-26T17:48:33.130Z,44.11
2023-04-26T17:52:45.818Z,43.95
2023-04-26T17:56:58.753Z,44.66
2023-04-26T18:01:11.214Z,46.46
2023-04-26T18:05:24.791Z,46.57
2023-04-26T18:09:37.233Z,46.81
2023-04-26T18:13:49.625Z,46.97
2023-04-26T18:18:05.726Z,48.60
2023-04-26T18:22:18.120Z,49.34
2023-04-26T18:26:30.489Z,50.88
2023-04-26T18:30:42.829Z,51.55
2023-04-26T18:34:55.265Z,52.60
2023-04-26T18:39:08.256Z,53.26
2023-04-26T18:43:20.791Z,53.83
2023-04-26T18:47:33.267Z,54.63
2023-04-26T18:51:46.060Z,53.83
2023-04-26T18:55:58.396Z,54.38
2023-04-26T19:00:12.083Z,55.29
2023-04-26T19:04:24.660Z,55.57
2023-04-26T19:08:37.362Z,56.01
2023-04-26T19:12:49.713Z,56.68
2023-04-26T19:17:02.438Z,56.17
2023-04-26T19:21:14.747Z,57.15
2023-04-26T19:25:27.562Z,57.78
2023-04-26T19:29:39.912Z,56.96
2023-04-26T19:33:52.773Z,57.03
2023-04-26T19:38:07.032Z,56.85
2023-04-26T19:42:19.310Z,58.01
2023-04-26T19:46:31.998Z,58.54
2023-04-26T19:50:46.488Z,57.48
2023-04-26T19:54:58.995Z,57.35
2023-04-26T19:59:14.024Z,58.69
2023-04-26T20:03:26.767Z,58.51
2023-04-26T20:07:39.094Z,59.65
2023-04-26T20:11:52.201Z,60.50
2023-04-26T20:16:04.962Z,61.79
2023-04-26T20:20:17.312Z,61.99
2023-04-26T20:24:30.593Z,62.47
2023-04-26T20:28:42.948Z,62.60
2023-04-26T20:32:55.402Z,63.30
2023-04-26T20:37:07.866Z,63.64
2023-04-26T20:41:20.258Z,65.12
2023-04-26T20:45:32.676Z,64.25
2023-04-26T20:49:45.046Z,63.35
2023-04-26T20:53:57.353Z,63.08
2023-04-26T20:58:09.791Z,64.63
2023-04-26T21:02:22.289Z,63.96
2023-04-26T21:06:34.745Z,65.32
2023-04-26T21:10:47.192Z,66.21
2023-04-26T21:14:59.511Z,68.59
2023-04-26T21:19:11.994Z,70.34
2023-04-26T21:23:24.461Z,72.12
2023-04-26T21:27:36.861Z,72.03
2023-04-26T21:31:49.236Z,72.30
2023-04-26T21:36:01.663Z,72.31
2023-04-26T21:40:14.219Z,69.82
2023-04-26T21:44:26.636Z,68.59
2023-04-26T21:48:41.745Z,68.06
2023-04-26T21:52:54.052Z,69.40
2023-04-26T21:57:07.188Z,70.19
2023-04-26T22:01:19.673Z,65.01
2023-04-26T22:05:32.215Z,66.97
2023-04-26T22:09:44.608Z,69.04
2023-04-26T22:13:57.050Z,69.19
2023-04-26T22:18:09.859Z,68.83
2023-04-26T22:22:22.284Z,69.17
2023-04-26T22:26:34.625Z,68.26
2023-04-26T22:30:47.048Z,65.22
2023-04-26T22:34:59.489Z,64.37
2023-04-26T22:39:12.481Z,66.04
2023-04-26T22:43:25.140Z,67.12
2023-04-26T22:47:37.728Z,65.57
2023-04-26T22:52:01.966Z,66.96
2023-04-26T22:56:19.915Z,66.42
2023-04-26T23:00:32.321Z,63.26
2023-04-26T23:04:44.821Z,64.13
2023-04-26T23:08:57.334Z,64.44
2023-04-26T23:13:10.109Z,65.98
2023-04-26T23:17:22.765Z,66.33
2023-04-26T23:21:35.099Z,64.32
2023-04-26T23:25:47.456Z,63.03
2023-04-26T23:29:59.967Z,64.25
2023-04-26T23:34:12.352Z,64.29
2023-04-26T23:38:24.772Z,65.03
2023-04-26T23:42:37.294Z,65.50
2023-04-26T23:46:49.714Z,65.42
2023-04-26T23:51:02.138Z,62.14
2023-04-26T23:55:14.468Z,60.29
2023-04-26T23:59:27.761Z,62.59
